createdAt,value
2023-09-18T00:00:18.533Z,19.42
2023-09-18T00:02:45.018Z,19.34
2023-09-18T00:05:11.743Z,19.35
2023-09-18T00:07:38.169Z,19.35
2023-09-18T00:10:04.966Z,19.35
2023-09-18T00:12:31.367Z,19.32
2023-09-18T00:14:57.830Z,19.32
2023-09-18T00:17:25.183Z,19.29
2023-09-18T00:19:52.850Z,19.24
2023-09-18T00:22:19.464Z,19.23
2023-09-18T00:24:46.185Z,19.24
2023-09-18T00:27:12.556Z,19.27
2023-09-18T00:29:39.056Z,19.25
2023-09-18T00:32:06.205Z,19.23
2023-09-18T00:34:35.877Z,19.29
2023-09-18T00:37:02.797Z,19.13
2023-09-18T00:39:29.264Z,19.14
2023-09-18T00:41:55.899Z,19.17
2023-09-18T00:44:23.227Z,19.05
2023-09-18T00:46:50.748Z,19.00
2023-09-18T00:49:19.996Z,19.07
2023-09-18T00:51:48.325Z,19.04
2023-09-18T00:54:19.301Z,19.06
2023-09-18T00:56:49.113Z,19.11
2023-09-18T00:59:15.844Z,19.08
2023-09-18T01:01:43.393Z,19.01
2023-09-18T01:04:10.920Z,19.03
2023-09-18T01:06:37.521Z,19.00
2023-09-18T01:09:13.186Z,19.08
2023-09-18T01:12:00.182Z,19.11
2023-09-18T01:14:33.255Z,19.07
2023-09-18T01:17:03.053Z,19.01
2023-09-18T01:19:47.592Z,19.02
2023-09-18T01:22:17.516Z,18.97
2023-09-18T01:24:45.614Z,18.91
2023-09-18T01:27:18.074Z,18.90
2023-09-18T01:29:48.377Z,18.89
2023-09-18T01:32:15.566Z,18.97
2023-09-18T01:34:46.558Z,18.93
2023-09-18T01:37:14.881Z,18.95
2023-09-18T01:39:42.896Z,18.90
2023-09-18T01:42:12.700Z,18.83
2023-09-18T01:44:39.537Z,18.92
2023-09-18T01:47:09.913Z,18.98
2023-09-18T01:49:39.077Z,18.93
2023-09-18T01:52:07.281Z,18.91
2023-09-18T01:54:34.882Z,18.91
2023-09-18T01:57:02.573Z,18.87
2023-09-18T01:59:29.396Z,18.90
2023-09-18T02:01:56.790Z,18.86
2023-09-18T02:04:28.451Z,18.88
2023-09-18T02:07:11.149Z,18.88
2023-09-18T02:09:37.818Z,18.89
2023-09-18T02:12:05.390Z,18.87
2023-09-18T02:14:32.557Z,18.82
2023-09-18T02:16:59.287Z,18.79
2023-09-18T02:19:25.886Z,18.76
2023-09-18T02:21:52.438Z,18.79
2023-09-18T02:24:19.134Z,18.79
2023-09-18T02:26:46.391Z,18.77
2023-09-18T02:29:15.113Z,18.76
2023-09-18T02:31:42.001Z,18.76
2023-09-18T02:34:10.089Z,18.71
2023-09-18T02:36:36.925Z,18.70
2023-09-18T02:39:03.850Z,18.69
2023-09-18T02:41:30.621Z,18.70
2023-09-18T02:43:57.105Z,18.71
2023-09-18T02:46:23.765Z,18.65
2023-09-18T02:48:50.689Z,18.63
2023-09-18T02:51:17.761Z,18.63
2023-09-18T02:53:44.440Z,18.55
2023-09-18T02:56:11.105Z,18.59
2023-09-18T02:58:37.713Z,18.56
2023-09-18T03:01:06.374Z,18.61
2023-09-18T03:03:33.164Z,18.59
2023-09-18T03:06:04.081Z,18.50
2023-09-18T03:08:30.812Z,18.52
2023-09-18T03:10:57.759Z,18.51
2023-09-18T03:13:24.403Z,18.50
2023-09-18T03:15:51.017Z,18.54
2023-09-18T03:18:17.683Z,18.50
2023-09-18T03:20:44.276Z,18.51
2023-09-18T03:23:11.058Z,18.49
2023-09-18T03:25:49.154Z,18.52
2023-09-18T03:28:19.178Z,18.44
2023-09-18T03:30:45.972Z,18.44
2023-09-18T03:33:12.561Z,18.40
2023-09-18T03:35:50.440Z,18.46
2023-09-18T03:38:17.654Z,18.51
2023-09-18T03:40:44.640Z,18.47
2023-09-18T03:43:13.487Z,18.44
2023-09-18T03:45:42.997Z,18.49
2023-09-18T03:48:10.639Z,18.47
2023-09-18T03:50:37.809Z,18.54
2023-09-18T03:53:04.581Z,18.55
2023-09-18T03:55:31.337Z,18.54
2023-09-18T03:57:58.315Z,18.54
2023-09-18T04:00:25.166Z,18.57
2023-09-18T04:02:51.975Z,18.59
2023-09-18T04:05:18.585Z,18.60
2023-09-18T04:07:47.460Z,18.54
2023-09-18T04:10:24.593Z,18.55
2023-09-18T04:12:52.866Z,18.56
2023-09-18T04:15:20.468Z,18.60
2023-09-18T04:17:47.619Z,18.63
2023-09-18T04:20:14.896Z,18.64
2023-09-18T04:22:46.840Z,18.65
2023-09-18T04:25:14.337Z,18.65
2023-09-18T04:27:40.866Z,18.70
2023-09-18T04:30:10.471Z,18.68
2023-09-18T04:32:41.567Z,18.68
2023-09-18T04:35:09.699Z,18.66
2023-09-18T04:37:39.191Z,18.69
2023-09-18T04:40:11.095Z,18.70
2023-09-18T04:42:39.905Z,18.73
2023-09-18T04:45:07.031Z,18.78
2023-09-18T04:47:33.799Z,18.77
2023-09-18T04:50:00.382Z,18.79
2023-09-18T04:52:26.918Z,18.82
2023-09-18T04:54:53.559Z,18.83
2023-09-18T04:57:20.062Z,18.84
2023-09-18T04:59:46.714Z,18.79
2023-09-18T05:02:13.315Z,18.76
2023-09-18T05:04:39.924Z,18.74
2023-09-18T05:07:06.410Z,18.73
2023-09-18T05:09:33.692Z,18.77
2023-09-18T05:12:00.226Z,18.79
2023-09-18T05:14:27.137Z,18.77
2023-09-18T05:16:53.822Z,18.79
2023-09-18T05:19:20.452Z,18.82
2023-09-18T05:21:47.627Z,18.88
2023-09-18T05:24:14.245Z,18.87
2023-09-18T05:26:40.783Z,18.86
2023-09-18T05:29:07.364Z,18.85
2023-09-18T05:31:33.966Z,18.86
2023-09-18T05:34:00.516Z,18.91
2023-09-18T05:36:29.604Z,18.93
2023-09-18T05:38:57.183Z,18.97
2023-09-18T05:41:27.451Z,18.98
2023-09-18T05:43:54.851Z,19.00
2023-09-18T05:46:21.383Z,19.05
2023-09-18T05:48:47.895Z,19.05
2023-09-18T05:51:14.401Z,19.09
2023-09-18T05:53:40.989Z,19.13
2023-09-18T05:56:07.602Z,19.18
2023-09-18T05:58:34.243Z,19.22
2023-09-18T06:01:01.743Z,19.28
2023-09-18T06:03:31.635Z,19.32
2023-09-18T06:05:58.570Z,19.37
2023-09-18T06:08:27.458Z,19.42
2023-09-18T06:10:55.237Z,19.48
2023-09-18T06:13:22.231Z,19.58
2023-09-18T06:15:49.428Z,19.52
2023-09-18T06:18:16.007Z,19.57
2023-09-18T06:20:42.648Z,19.71
2023-09-18T06:23:09.246Z,19.81
2023-09-18T06:25:35.834Z,19.90
2023-09-18T06:28:04.472Z,20.00
2023-09-18T06:30:32.210Z,20.16
2023-09-18T06:32:58.861Z,20.34
2023-09-18T06:35:25.413Z,20.49
2023-09-18T06:37:52.171Z,20.67
2023-09-18T06:40:18.641Z,20.82
2023-09-18T06:42:45.370Z,20.97
2023-09-18T06:45:12.396Z,21.16
2023-09-18T06:47:42.062Z,21.35
2023-09-18T06:50:08.742Z,21.56
2023-09-18T06:52:35.175Z,21.72
2023-09-18T06:55:01.860Z,21.87
2023-09-18T06:57:28.851Z,22.04
2023-09-18T06:59:55.449Z,22.22
2023-09-18T07:02:22.145Z,22.36
2023-09-18T07:04:48.583Z,22.47
2023-09-18T07:07:16.090Z,22.59
2023-09-18T07:09:59.316Z,22.73
2023-09-18T07:12:29.453Z,22.89
2023-09-18T07:14:55.954Z,23.06
2023-09-18T07:17:22.422Z,23.19
2023-09-18T07:19:48.972Z,23.22
2023-09-18T07:22:15.391Z,23.35
2023-09-18T07:24:43.890Z,23.49
2023-09-18T07:27:10.451Z,23.65
2023-09-18T07:29:36.985Z,23.70
2023-09-18T07:32:04.122Z,23.79
2023-09-18T07:34:30.673Z,23.97
2023-09-18T07:36:57.877Z,24.06
2023-09-18T07:39:24.552Z,24.18
2023-09-18T07:41:51.352Z,24.26
2023-09-18T07:44:21.997Z,24.37
2023-09-18T07:46:48.771Z,24.42
2023-09-18T07:49:17.911Z,24.50
2023-09-18T07:51:45.106Z,24.49
2023-09-18T07:54:16.072Z,24.54
2023-09-18T07:56:44.317Z,24.57
2023-09-18T07:59:12.018Z,24.69
2023-09-18T08:01:38.752Z,24.72
2023-09-18T08:04:06.645Z,24.84
2023-09-18T08:06:33.584Z,24.93
2023-09-18T08:09:01.615Z,25.05
2023-09-18T08:11:28.101Z,25.14
2023-09-18T08:13:54.584Z,25.12
2023-09-18T08:16:21.162Z,25.24
2023-09-18T08:18:49.069Z,25.38
2023-09-18T08:21:15.684Z,25.47
2023-09-18T08:23:43.571Z,25.55
2023-09-18T08:26:10.146Z,25.66
2023-09-18T08:28:39.219Z,25.78
2023-09-18T08:31:05.760Z,25.85
2023-09-18T08:33:32.473Z,25.81
2023-09-18T08:35:59.528Z,25.82
2023-09-18T08:38:26.181Z,25.92
2023-09-18T08:40:55.312Z,25.93
2023-09-18T08:43:23.942Z,25.76
2023-09-18T08:45:54.287Z,25.70
2023-09-18T08:48:22.377Z,25.80
2023-09-18T08:50:49.619Z,25.85
2023-09-18T08:53:16.256Z,25.89
2023-09-18T08:55:42.830Z,25.92
2023-09-18T08:58:09.442Z,25.94
2023-09-18T09:00:38.622Z,25.96
2023-09-18T09:03:06.141Z,25.89
2023-09-18T09:05:33.649Z,25.90
2023-09-18T09:08:01.088Z,25.89
2023-09-18T09:10:27.677Z,26.00
2023-09-18T09:13:02.612Z,25.92
2023-09-18T09:15:50.982Z,26.04
2023-09-18T09:18:17.768Z,26.09
2023-09-18T09:21:05.784Z,26.10
2023-09-18T09:23:57.066Z,26.16
2023-09-18T09:26:25.563Z,26.15
2023-09-18T09:28:52.560Z,26.23
2023-09-18T09:31:26.241Z,26.29
2023-09-18T09:33:57.576Z,26.18
2023-09-18T09:36:25.463Z,26.23
2023-09-18T09:39:01.653Z,26.27
2023-09-18T09:41:29.462Z,26.23
2023-09-18T09:43:57.380Z,26.27
2023-09-18T09:46:26.629Z,26.36
2023-09-18T09:49:06.331Z,26.32
2023-09-18T09:51:34.211Z,26.23
2023-09-18T09:54:01.657Z,26.23
2023-09-18T09:56:52.302Z,26.28
2023-09-18T09:59:20.521Z,26.33
2023-09-18T10:01:51.564Z,26.35
2023-09-18T10:04:20.995Z,26.44
2023-09-18T10:07:08.268Z,26.44
2023-09-18T10:09:36.796Z,26.45
2023-09-18T10:12:10.517Z,26.61
2023-09-18T10:14:55.233Z,26.72
2023-09-18T10:17:25.814Z,26.84
2023-09-18T10:20:12.093Z,26.89
2023-09-18T10:22:41.091Z,26.93
2023-09-18T10:25:18.545Z,27.02
2023-09-18T10:27:50.462Z,27.11
2023-09-18T10:30:20.436Z,27.19
2023-09-18T10:32:47.483Z,27.21
2023-09-18T10:35:14.274Z,27.25
2023-09-18T10:37:43.139Z,27.24
2023-09-18T10:40:10.451Z,27.28
2023-09-18T10:42:40.691Z,27.38
2023-09-18T10:45:12.506Z,27.40
2023-09-18T10:47:46.591Z,27.48
2023-09-18T10:50:13.361Z,27.48
2023-09-18T10:52:44.862Z,27.47
2023-09-18T10:55:15.614Z,27.49
2023-09-18T10:57:53.392Z,27.49
2023-09-18T11:00:23.590Z,27.51
2023-09-18T11:02:53.022Z,27.54
2023-09-18T11:05:33.980Z,27.54
2023-09-18T11:08:38.208Z,27.61
2023-09-18T11:11:13.807Z,27.61
2023-09-18T11:13:46.761Z,27.65
2023-09-18T11:16:29.448Z,27.67
2023-09-18T11:19:01.719Z,27.71
2023-09-18T11:21:30.221Z,27.73
2023-09-18T11:24:06.798Z,27.81
2023-09-18T11:26:38.142Z,27.84
2023-09-18T11:29:12.501Z,27.94
2023-09-18T11:31:56.596Z,28.00
2023-09-18T11:34:38.769Z,28.06
2023-09-18T11:37:24.565Z,28.11
2023-09-18T11:39:51.221Z,28.07
2023-09-18T11:42:28.105Z,28.05
2023-09-18T11:44:56.203Z,28.08
2023-09-18T11:47:27.460Z,28.11
2023-09-18T11:50:01.132Z,28.05
2023-09-18T11:52:30.095Z,28.02
2023-09-18T11:54:59.704Z,27.99
2023-09-18T11:57:26.521Z,27.97
2023-09-18T11:59:53.572Z,27.98
2023-09-18T12:02:37.669Z,27.98
2023-09-18T12:05:27.120Z,28.02
2023-09-18T12:07:54.433Z,28.07
2023-09-18T12:10:24.395Z,28.11
2023-09-18T12:12:51.107Z,28.23
2023-09-18T12:15:24.751Z,28.31
2023-09-18T12:17:56.250Z,28.35
2023-09-18T12:20:22.851Z,28.39
2023-09-18T12:22:51.599Z,28.41
2023-09-18T12:25:19.812Z,28.31
2023-09-18T12:27:46.828Z,28.32
2023-09-18T12:30:21.549Z,28.31
2023-09-18T12:32:51.141Z,28.25
2023-09-18T12:35:19.891Z,28.27
2023-09-18T12:37:46.741Z,28.17
2023-09-18T12:40:26.790Z,28.20
2023-09-18T12:42:55.871Z,28.26
2023-09-18T12:45:23.675Z,28.25
2023-09-18T12:47:51.397Z,28.27
2023-09-18T12:50:18.109Z,28.26
2023-09-18T12:52:45.244Z,28.28
2023-09-18T12:55:28.541Z,28.21
2023-09-18T12:57:56.689Z,28.17
2023-09-18T13:00:24.370Z,28.18
2023-09-18T13:02:56.171Z,28.24
2023-09-18T13:05:33.506Z,28.26
2023-09-18T13:08:05.110Z,28.29
2023-09-18T13:10:48.699Z,28.40
2023-09-18T13:13:20.239Z,28.45
2023-09-18T13:15:48.600Z,28.49
2023-09-18T13:18:17.732Z,28.57
2023-09-18T13:20:44.850Z,28.58
2023-09-18T13:23:11.772Z,28.59
2023-09-18T13:25:43.694Z,28.62
2023-09-18T13:28:11.029Z,28.69
2023-09-18T13:30:41.403Z,28.76
2023-09-18T13:33:10.168Z,28.77
2023-09-18T13:35:44.678Z,28.84
2023-09-18T13:38:12.391Z,28.84
2023-09-18T13:40:42.823Z,28.82
2023-09-18T13:43:10.748Z,28.83
2023-09-18T13:45:37.667Z,28.81
2023-09-18T13:48:07.850Z,28.80
2023-09-18T13:50:36.080Z,28.79
2023-09-18T13:53:05.025Z,28.81
2023-09-18T13:55:32.343Z,28.80
2023-09-18T13:57:59.056Z,28.82
2023-09-18T14:00:26.916Z,28.78
2023-09-18T14:02:53.560Z,28.76
2023-09-18T14:05:21.245Z,28.74
2023-09-18T14:07:48.768Z,28.70
2023-09-18T14:10:16.044Z,28.70
2023-09-18T14:12:43.040Z,28.71
2023-09-18T14:15:10.818Z,28.73
2023-09-18T14:17:38.039Z,28.74
2023-09-18T14:20:09.039Z,28.72
2023-09-18T14:22:36.593Z,28.70
2023-09-18T14:25:07.789Z,28.69
2023-09-18T14:27:36.123Z,28.69
2023-09-18T14:30:08.792Z,28.60
2023-09-18T14:32:37.359Z,28.57
2023-09-18T14:35:06.356Z,28.55
2023-09-18T14:37:33.032Z,28.55
2023-09-18T14:39:59.610Z,28.56
2023-09-18T14:42:26.123Z,28.46
2023-09-18T14:44:52.683Z,28.44
2023-09-18T14:47:24.412Z,28.44
2023-09-18T14:49:51.429Z,28.47
2023-09-18T14:52:19.710Z,28.37
2023-09-18T14:54:46.386Z,28.35
2023-09-18T14:57:12.878Z,28.37
2023-09-18T14:59:42.469Z,28.37
2023-09-18T15:02:09.406Z,28.37
2023-09-18T15:04:36.456Z,28.39
2023-09-18T15:07:03.770Z,28.40
2023-09-18T15:09:30.510Z,28.44
2023-09-18T15:11:57.172Z,28.47
2023-09-18T15:14:23.878Z,28.48
2023-09-18T15:16:50.462Z,28.48
2023-09-18T15:19:20.509Z,28.47
2023-09-18T15:21:47.666Z,28.47
2023-09-18T15:24:14.602Z,28.46
2023-09-18T15:26:41.298Z,28.44
2023-09-18T15:29:09.746Z,28.44
2023-09-18T15:31:36.861Z,28.42
2023-09-18T15:34:04.258Z,28.39
2023-09-18T15:36:32.365Z,28.38
2023-09-18T15:39:00.167Z,28.35
2023-09-18T15:41:27.146Z,28.31
2023-09-18T15:43:53.736Z,28.34
2023-09-18T15:46:20.438Z,28.25
2023-09-18T15:48:47.259Z,28.27
2023-09-18T15:51:13.898Z,28.27
2023-09-18T15:53:40.993Z,28.27
2023-09-18T15:56:07.861Z,28.26
2023-09-18T15:58:36.022Z,28.17
2023-09-18T16:01:13.747Z,28.18
2023-09-18T16:03:48.011Z,28.18
2023-09-18T16:06:19.138Z,28.08
2023-09-18T16:08:45.849Z,28.06
2023-09-18T16:11:12.748Z,28.08
2023-09-18T16:13:39.437Z,28.02
2023-09-18T16:16:06.682Z,28.00
2023-09-18T16:18:33.499Z,27.96
2023-09-18T16:21:00.130Z,27.92
2023-09-18T16:23:28.058Z,27.89
2023-09-18T16:25:54.583Z,27.84
2023-09-18T16:28:24.031Z,27.82
2023-09-18T16:30:50.521Z,27.73
2023-09-18T16:33:17.049Z,27.69
2023-09-18T16:35:45.658Z,27.65
2023-09-18T16:38:12.155Z,27.61
2023-09-18T16:40:38.646Z,27.58
2023-09-18T16:43:05.149Z,27.54
2023-09-18T16:45:31.643Z,27.50
2023-09-18T16:47:58.729Z,27.44
2023-09-18T16:50:25.393Z,27.40
2023-09-18T16:52:51.977Z,27.25
2023-09-18T16:55:18.465Z,27.28
2023-09-18T16:57:45.184Z,27.23
2023-09-18T17:00:12.739Z,27.20
2023-09-18T17:02:39.444Z,27.13
2023-09-18T17:05:06.602Z,27.09
2023-09-18T17:07:33.128Z,27.03
2023-09-18T17:09:59.646Z,27.03
2023-09-18T17:12:26.159Z,26.98
2023-09-18T17:14:52.677Z,26.98
2023-09-18T17:17:19.182Z,26.94
2023-09-18T17:19:46.246Z,26.92
2023-09-18T17:22:12.712Z,26.90
2023-09-18T17:24:39.881Z,26.86
2023-09-18T17:27:07.853Z,26.86
2023-09-18T17:29:35.028Z,26.82
2023-09-18T17:32:01.603Z,26.77
2023-09-18T17:34:29.055Z,26.74
2023-09-18T17:36:58.864Z,26.68
2023-09-18T17:39:26.006Z,26.65
2023-09-18T17:41:53.325Z,26.58
2023-09-18T17:44:20.012Z,26.54
2023-09-18T17:46:47.375Z,26.50
2023-09-18T17:49:15.348Z,26.43
2023-09-18T17:51:42.174Z,26.37
2023-09-18T17:54:10.357Z,26.35
2023-09-18T17:56:37.087Z,26.30
2023-09-18T17:59:04.180Z,26.26
2023-09-18T18:01:30.846Z,26.22
2023-09-18T18:03:59.588Z,26.19
2023-09-18T18:06:26.582Z,26.17
2023-09-18T18:08:54.049Z,26.16
2023-09-18T18:11:21.636Z,26.13
2023-09-18T18:13:48.119Z,26.11
2023-09-18T18:16:14.695Z,26.07
2023-09-18T18:18:41.312Z,26.01
2023-09-18T18:21:08.666Z,26.02
2023-09-18T18:23:35.360Z,25.95
2023-09-18T18:26:04.389Z,25.94
2023-09-18T18:28:30.888Z,25.92
2023-09-18T18:30:57.442Z,25.90
2023-09-18T18:33:24.112Z,25.83
2023-09-18T18:35:50.807Z,25.83
2023-09-18T18:38:17.463Z,25.80
2023-09-18T18:40:44.534Z,25.77
2023-09-18T18:43:16.486Z,25.81
2023-09-18T18:45:43.954Z,25.76
2023-09-18T18:48:10.720Z,25.74
2023-09-18T18:50:40.056Z,25.75
2023-09-18T18:53:09.002Z,25.74
2023-09-18T18:55:35.812Z,25.71
2023-09-18T18:58:02.429Z,25.70
2023-09-18T19:00:29.028Z,25.70
2023-09-18T19:02:55.789Z,25.68
2023-09-18T19:05:25.295Z,25.68
2023-09-18T19:07:52.363Z,25.68
2023-09-18T19:10:18.912Z,25.71
2023-09-18T19:12:48.603Z,25.67
2023-09-18T19:15:15.557Z,25.68
2023-09-18T19:17:42.655Z,25.65
2023-09-18T19:20:09.354Z,25.66
2023-09-18T19:22:36.168Z,25.66
2023-09-18T19:25:05.794Z,25.59
2023-09-18T19:27:37.411Z,25.52
2023-09-18T19:30:08.153Z,25.56
2023-09-18T19:32:39.113Z,25.55
2023-09-18T19:35:06.488Z,25.53
2023-09-18T19:37:33.302Z,25.47
2023-09-18T19:40:00.057Z,25.48
2023-09-18T19:42:26.632Z,25.45
2023-09-18T19:44:57.119Z,25.46
2023-09-18T19:47:23.825Z,25.42
2023-09-18T19:49:50.394Z,25.34
2023-09-18T19:52:18.619Z,25.31
2023-09-18T19:54:45.750Z,25.20
2023-09-18T19:57:12.612Z,25.09
2023-09-18T19:59:39.103Z,25.07
2023-09-18T20:02:07.267Z,25.06
2023-09-18T20:04:34.935Z,25.01
2023-09-18T20:07:01.513Z,25.01
2023-09-18T20:09:28.295Z,24.95
2023-09-18T20:11:55.060Z,24.88
2023-09-18T20:14:31.103Z,24.91
2023-09-18T20:16:58.587Z,24.89
2023-09-18T20:19:25.059Z,24.88
2023-09-18T20:21:51.848Z,24.85
2023-09-18T20:24:18.417Z,24.78
2023-09-18T20:26:48.680Z,24.74
2023-09-18T20:29:16.324Z,24.69
2023-09-18T20:31:43.157Z,24.70
2023-09-18T20:34:10.215Z,24.73
2023-09-18T20:36:37.097Z,24.74
2023-09-18T20:39:05.632Z,24.70
2023-09-18T20:41:33.442Z,24.72
2023-09-18T20:44:00.787Z,24.66
2023-09-18T20:46:28.983Z,24.74
2023-09-18T20:49:04.011Z,24.72
2023-09-18T20:51:32.421Z,24.73
2023-09-18T20:54:02.343Z,24.76
2023-09-18T20:56:29.521Z,24.81
2023-09-18T20:58:58.628Z,24.84
2023-09-18T21:01:25.470Z,24.81
2023-09-18T21:03:52.816Z,24.82
2023-09-18T21:06:20.049Z,24.84
2023-09-18T21:08:46.675Z,24.86
2023-09-18T21:11:13.245Z,24.92
2023-09-18T21:13:44.938Z,24.90
2023-09-18T21:16:11.536Z,24.91
2023-09-18T21:18:38.265Z,24.97
2023-09-18T21:21:15.254Z,25.00
2023-09-18T21:23:44.765Z,24.96
2023-09-18T21:26:12.921Z,24.96
2023-09-18T21:28:39.816Z,25.00
2023-09-18T21:31:17.658Z,24.91
2023-09-18T21:33:46.888Z,24.93
2023-09-18T21:36:20.695Z,24.88
2023-09-18T21:38:50.226Z,24.84
2023-09-18T21:41:18.337Z,24.84
2023-09-18T21:43:46.204Z,24.87
2023-09-18T21:46:13.552Z,24.89
2023-09-18T21:48:40.771Z,24.92
2023-09-18T21:51:08.429Z,24.97
2023-09-18T21:56:05.570Z,24.96
2023-09-18T21:58:32.209Z,24.98
2023-09-18T22:01:01.282Z,24.98
2023-09-18T22:03:28.032Z,24.98
2023-09-18T22:05:54.660Z,24.93
2023-09-18T22:08:22.005Z,24.92
2023-09-18T22:10:48.881Z,24.90
2023-09-18T22:13:16.586Z,24.93
2023-09-18T22:15:43.201Z,24.93
2023-09-18T22:18:10.486Z,24.91
2023-09-18T22:20:37.375Z,24.87
2023-09-18T22:23:06.645Z,24.85
2023-09-18T22:25:34.262Z,24.83
2023-09-18T22:28:02.659Z,24.81
2023-09-18T22:30:30.214Z,24.77
2023-09-18T22:32:57.220Z,24.78
2023-09-18T22:35:23.936Z,24.76
2023-09-18T22:38:03.472Z,24.69
2023-09-18T22:40:29.853Z,24.64
2023-09-18T22:43:38.589Z,24.66
2023-09-18T22:46:42.712Z,24.66
2023-09-18T22:49:46.545Z,24.59
2023-09-18T22:52:37.946Z,24.54
2023-09-18T22:55:07.851Z,24.55
2023-09-18T22:57:36.889Z,24.54
2023-09-18T23:00:06.784Z,24.46
2023-09-18T23:02:43.236Z,24.47
2023-09-18T23:05:15.516Z,24.46
2023-09-18T23:07:44.767Z,24.45
2023-09-18T23:10:13.424Z,24.47
2023-09-18T23:12:40.074Z,24.44
2023-09-18T23:15:09.489Z,24.43
2023-09-18T23:17:36.289Z,24.42
2023-09-18T23:20:08.911Z,24.41
2023-09-18T23:22:38.207Z,24.43
2023-09-18T23:25:09.431Z,24.45
2023-09-18T23:27:38.157Z,24.41
2023-09-18T23:30:09.121Z,24.38
2023-09-18T23:32:35.658Z,24.35
2023-09-18T23:35:02.217Z,24.32
2023-09-18T23:37:28.692Z,24.32
2023-09-18T23:39:55.221Z,24.30
2023-09-18T23:42:21.618Z,24.25
2023-09-18T23:44:50.223Z,24.26
2023-09-18T23:47:16.769Z,24.28
2023-09-18T23:49:43.858Z,24.26
2023-09-18T23:52:10.404Z,24.24
2023-09-18T23:54:37.389Z,24.22
2023-09-18T23:57:05.465Z,24.19
2023-09-18T23:59:33.230Z,24.17
